Time,TemperatureF,DewpointF,PressureIn,WindDirection,WindDirectionDegrees,WindSpeedMPH,WindSpeedGustMPH,Humidity,HourlyPrecipIn,Conditions,Clouds,dailyrainin,SoftwareType,DateUTC
2013-10-27 00:04:00,41.2,32.9,30.13,WNW,283,0.0,2.0,72,0.00,,,0.00,Wunderground v.1.15,2013-10-27 05:04:00,
2013-10-27 00:09:00,40.4,32.8,30.13,WNW,284,0.0,2.0,74,0.00,,,0.00,Wunderground v.1.15,2013-10-27 05:09:00,
2013-10-27 00:19:00,38.7,31.8,30.14,WNW,284,0.0,2.0,76,0.00,,,0.00,Wunderground v.1.15,2013-10-27 05:19:00,
2013-10-27 00:29:00,38.5,33.8,30.13,WNW,284,0.0,2.0,83,0.00,,,0.00,Wunderground v.1.15,2013-10-27 05:29:00,
2013-10-27 00:39:00,37.8,32.8,30.13,WNW,284,0.0,2.0,82,0.00,,,0.00,Wunderground v.1.15,2013-10-27 05:39:00,
2013-10-27 00:44:00,37.1,32.1,30.13,WNW,283,0.0,2.0,82,0.00,,,0.00,Wunderground v.1.15,2013-10-27 05:44:00,
2013-10-27 00:49:00,36.5,31.8,30.13,WNW,284,0.0,2.0,83,0.00,,,0.00,Wunderground v.1.15,2013-10-27 05:49:00,
2013-10-27 00:59:00,35.6,32.1,30.13,WNW,284,0.0,2.0,87,0.00,,,0.00,Wunderground v.1.15,2013-10-27 05:59:00,
2013-10-27 01:09:00,36.5,32.7,30.13,WNW,284,0.0,2.0,86,0.00,,,0.00,Wunderground v.1.15,2013-10-27 06:09:00,
2013-10-27 01:14:00,36.1,32.6,30.13,WNW,284,0.0,2.0,87,0.00,,,0.00,Wunderground v.1.15,2013-10-27 06:14:00,
2013-10-27 01:24:00,35.3,31.8,30.13,WNW,284,0.0,2.0,87,0.00,,,0.00,Wunderground v.1.15,2013-10-27 06:24:00,
2013-10-27 01:34:00,34.7,32.1,30.13,WNW,284,0.0,2.0,90,0.00,,,0.00,Wunderground v.1.15,2013-10-27 06:34:00,
2013-10-27 01:39:00,34.5,32.1,30.13,WNW,284,0.0,2.0,91,0.00,,,0.00,Wunderground v.1.15,2013-10-27 06:39:00,
2013-10-27 01:49:00,34.7,32.1,30.13,WNW,284,0.0,2.0,90,0.00,,,0.00,Wunderground v.1.15,2013-10-27 06:49:00,
2013-10-27 01:59:00,34.2,31.6,30.13,WNW,284,0.0,2.0,90,0.00,,,0.00,Wunderground v.1.15,2013-10-27 06:59:00,
2013-10-27 02:09:00,33.3,30.7,30.12,WNW,284,0.0,2.0,90,0.00,,,0.00,Wunderground v.1.15,2013-10-27 07:09:00,
2013-10-27 02:19:00,33.3,31.5,30.12,WNW,284,0.0,2.0,93,0.00,,,0.00,Wunderground v.1.15,2013-10-27 07:19:00,
2013-10-27 02:29:00,33.1,30.8,30.12,WNW,284,0.0,2.0,91,0.00,,,0.00,Wunderground v.1.15,2013-10-27 07:29:00,
2013-10-27 02:39:00,32.3,30.2,30.12,WNW,284,0.0,2.0,92,0.00,,,0.00,Wunderground v.1.15,2013-10-27 07:39:00,
2013-10-27 02:49:00,31.8,30.0,30.12,WNW,284,0.0,2.0,93,0.00,,,0.00,Wunderground v.1.15,2013-10-27 07:49:00,
2013-10-27 02:59:00,31.8,30.5,30.12,WNW,284,0.0,2.0,95,0.00,,,0.00,Wunderground v.1.15,2013-10-27 07:59:00,
2013-10-27 03:09:00,32.2,30.9,30.12,WNW,284,0.0,2.0,95,0.00,,,0.00,Wunderground v.1.15,2013-10-27 08:09:00,
2013-10-27 03:19:00,31.5,30.0,30.12,WNW,284,0.0,2.0,94,0.00,,,0.00,Wunderground v.1.15,2013-10-27 08:19:00,
2013-10-27 03:29:00,31.7,30.7,30.11,WNW,284,0.0,2.0,96,0.00,,,0.00,Wunderground v.1.15,2013-10-27 08:29:00,
2013-10-27 03:34:00,32.1,31.1,30.11,WNW,284,0.0,2.0,96,0.00,,,0.00,Wunderground v.1.15,2013-10-27 08:34:00,
2013-10-27 03:44:00,31.8,30.5,30.10,WNW,284,0.0,2.0,95,0.00,,,0.00,Wunderground v.1.15,2013-10-27 08:44:00,
2013-10-27 03:54:00,31.5,30.0,30.10,WNW,284,0.0,2.0,94,0.00,,,0.00,Wunderground v.1.15,2013-10-27 08:54:00,
2013-10-27 04:04:00,31.2,29.9,30.10,WNW,284,0.0,2.0,95,0.00,,,0.00,Wunderground v.1.15,2013-10-27 09:04:00,
2013-10-27 04:09:00,31.1,29.8,30.10,WNW,284,0.0,2.0,95,0.00,,,0.00,Wunderground v.1.15,2013-10-27 09:09:00,
2013-10-27 04:19:00,30.5,29.0,30.10,WNW,284,0.0,2.0,94,0.00,,,0.00,Wunderground v.1.15,2013-10-27 09:19:00,
2013-10-27 04:29:00,30.8,29.8,30.10,WNW,284,0.0,2.0,96,0.00,,,0.00,Wunderground v.1.15,2013-10-27 09:29:00,
2013-10-27 04:39:00,30.7,29.4,30.10,WNW,284,0.0,2.0,95,0.00,,,0.00,Wunderground v.1.15,2013-10-27 09:39:00,
2013-10-27 04:49:00,29.9,28.6,30.10,WNW,284,0.0,2.0,95,0.00,,,0.00,Wunderground v.1.15,2013-10-27 09:49:00,
2013-10-27 04:59:00,29.4,28.1,30.11,WNW,284,0.0,2.0,95,0.00,,,0.00,Wunderground v.1.15,2013-10-27 09:59:00,
2013-10-27 05:09:00,29.6,28.6,30.11,WNW,284,0.0,2.0,96,0.00,,,0.00,Wunderground v.1.15,2013-10-27 10:09:00,
2013-10-27 05:19:00,29.0,27.7,30.11,WNW,284,0.0,2.0,95,0.00,,,0.00,Wunderground v.1.15,2013-10-27 10:19:00,
2013-10-27 05:29:00,29.4,28.4,30.11,WNW,284,0.0,2.0,96,0.00,,,0.00,Wunderground v.1.15,2013-10-27 10:29:00,
2013-10-27 05:39:00,29.3,28.3,30.10,WNW,283,0.0,2.0,96,0.00,,,0.00,Wunderground v.1.15,2013-10-27 10:39:00,
2013-10-27 05:49:00,29.0,28.0,30.10,WNW,284,0.0,2.0,96,0.00,,,0.00,Wunderground v.1.15,2013-10-27 10:49:00,
2013-10-27 05:59:00,28.3,27.3,30.10,WNW,283,0.0,2.0,96,0.00,,,0.00,Wunderground v.1.15,2013-10-27 10:59:00,
2013-10-27 06:04:00,28.5,27.5,30.11,WNW,283,0.0,2.0,96,0.00,,,0.00,Wunderground v.1.15,2013-10-27 11:04:00,
2013-10-27 06:14:00,28.4,27.4,30.11,WNW,284,0.0,2.0,96,0.00,,,0.00,Wunderground v.1.15,2013-10-27 11:14:00,
2013-10-27 06:24:00,28.5,27.8,30.11,WNW,283,0.0,2.0,97,0.00,,,0.00,Wunderground v.1.15,2013-10-27 11:24:00,
2013-10-27 06:34:00,28.0,27.0,30.11,WNW,284,0.0,2.0,96,0.00,,,0.00,Wunderground v.1.15,2013-10-27 11:34:00,
2013-10-27 06:39:00,28.2,27.5,30.11,WNW,284,0.0,2.0,97,0.00,,,0.00,Wunderground v.1.15,2013-10-27 11:39:00,
2013-10-27 06:49:00,28.0,27.3,30.11,WNW,284,0.0,2.0,97,0.00,,,0.00,Wunderground v.1.15,2013-10-27 11:49:00,
2013-10-27 06:59:00,27.3,26.3,30.10,WNW,283,0.0,2.0,96,0.00,,,0.00,Wunderground v.1.15,2013-10-27 11:59:00,
2013-10-27 07:09:00,27.5,26.8,30.10,WNW,284,0.0,2.0,97,0.00,,,0.00,Wunderground v.1.15,2013-10-27 12:09:00,
2013-10-27 07:19:00,27.7,27.0,30.10,WNW,283,0.0,2.0,97,0.00,,,0.00,Wunderground v.1.15,2013-10-27 12:19:00,
2013-10-27 07:29:00,27.0,26.0,30.10,WNW,283,0.0,2.0,96,0.00,,,0.00,Wunderground v.1.15,2013-10-27 12:29:00,
2013-10-27 07:39:00,26.5,25.5,30.10,WNW,283,0.0,2.0,96,0.00,,,0.00,Wunderground v.1.15,2013-10-27 12:39:00,
2013-10-27 07:49:00,26.7,26.0,30.10,WNW,284,0.0,2.0,97,0.00,,,0.00,Wunderground v.1.15,2013-10-27 12:49:00,
2013-10-27 07:59:00,27.0,26.3,30.10,WNW,284,0.0,2.0,97,0.00,,,0.00,Wunderground v.1.15,2013-10-27 12:59:00,
2013-10-27 08:09:00,28.0,27.3,30.10,WNW,283,0.0,2.0,97,0.00,,,0.00,Wunderground v.1.15,2013-10-27 13:09:00,
2013-10-27 08:14:00,28.2,27.5,30.10,WNW,284,0.0,2.0,97,0.00,,,0.00,Wunderground v.1.15,2013-10-27 13:14:00,
2013-10-27 08:24:00,29.2,28.5,30.11,WNW,283,0.0,2.0,97,0.00,,,0.00,Wunderground v.1.15,2013-10-27 13:24:00,
2013-10-27 08:34:00,32.4,31.9,30.11,WNW,283,0.0,2.0,98,0.00,,,0.00,Wunderground v.1.15,2013-10-27 13:34:00,
2013-10-27 08:39:00,33.5,32.7,30.11,WNW,284,0.0,2.0,97,0.00,,,0.00,Wunderground v.1.15,2013-10-27 13:39:00,
2013-10-27 08:49:00,36.1,34.8,30.11,WNW,284,0.0,2.0,95,0.00,,,0.00,Wunderground v.1.15,2013-10-27 13:49:00,
2013-10-27 08:59:00,38.1,34.6,30.11,WNW,289,0.0,2.0,87,0.00,,,0.00,Wunderground v.1.15,2013-10-27 13:59:00,
2013-10-27 09:09:00,40.4,35.3,30.12,NW,324,0.0,2.0,82,0.00,,,0.00,Wunderground v.1.15,2013-10-27 14:09:00,
2013-10-27 09:19:00,42.5,36.1,30.12,NW,325,0.0,2.0,78,0.00,,,0.00,Wunderground v.1.15,2013-10-27 14:19:00,
2013-10-27 09:29:00,43.9,36.1,30.12,NNE,25,0.0,2.0,74,0.00,,,0.00,Wunderground v.1.15,2013-10-27 14:29:00,
2013-10-27 09:39:00,44.8,36.7,30.12,ENE,69,0.0,2.0,73,0.00,,,0.00,Wunderground v.1.15,2013-10-27 14:39:00,
2013-10-27 09:49:00,46.8,35.6,30.12,ENE,69,0.0,2.0,65,0.00,,,0.00,Wunderground v.1.15,2013-10-27 14:49:00,
2013-10-27 09:59:00,49.3,36.0,30.12,East,100,0.0,2.0,60,0.00,,,0.00,Wunderground v.1.15,2013-10-27 14:59:00,
2013-10-27 10:09:00,50.8,35.7,30.11,East,91,0.0,2.0,56,0.00,,,0.00,Wunderground v.1.15,2013-10-27 15:09:00,
2013-10-27 10:19:00,50.8,33.8,30.11,East,95,0.0,2.0,52,0.00,,,0.00,Wunderground v.1.15,2013-10-27 15:19:00,
2013-10-27 10:29:00,50.9,33.4,30.11,SE,135,1.0,2.0,51,0.00,,,0.00,Wunderground v.1.15,2013-10-27 15:29:00,
2013-10-27 10:39:00,52.0,34.4,30.11,SE,142,0.0,2.0,51,0.00,,,0.00,Wunderground v.1.15,2013-10-27 15:39:00,
2013-10-27 10:49:00,53.3,34.1,30.11,ESE,115,1.0,2.0,48,0.00,,,0.00,Wunderground v.1.15,2013-10-27 15:49:00,
2013-10-27 10:59:00,54.7,35.9,30.11,SSE,158,1.0,1.0,49,0.00,,,0.00,Wunderground v.1.15,2013-10-27 15:59:00,
2013-10-27 11:09:00,56.2,34.0,30.11,East,82,0.0,2.0,43,0.00,,,0.00,Wunderground v.1.15,2013-10-27 16:09:00,
2013-10-27 11:19:00,55.9,32.5,30.11,NNE,19,2.0,2.0,41,0.00,,,0.00,Wunderground v.1.15,2013-10-27 16:19:00,
2013-10-27 11:29:00,57.2,33.1,30.11,South,176,1.0,1.0,40,0.00,,,0.00,Wunderground v.1.15,2013-10-27 16:29:00,
2013-10-27 11:39:00,58.6,35.0,30.11,East,99,0.0,2.0,41,0.00,,,0.00,Wunderground v.1.15,2013-10-27 16:39:00,
2013-10-27 11:49:00,59.3,34.3,30.11,WSW,252,0.0,5.0,39,0.00,,,0.00,Wunderground v.1.15,2013-10-27 16:49:00,
2013-10-27 11:59:00,58.7,35.7,30.10,SW,218,1.0,1.0,42,0.00,,,0.00,Wunderground v.1.15,2013-10-27 16:59:00,
2013-10-27 12:09:00,59.3,33.7,30.10,SE,146,0.0,2.0,38,0.00,,,0.00,Wunderground v.1.15,2013-10-27 17:09:00,
2013-10-27 12:19:00,60.1,35.0,30.09,ESE,107,1.0,2.0,39,0.00,,,0.00,Wunderground v.1.15,2013-10-27 17:19:00,
2013-10-27 12:29:00,59.7,34.0,30.09,WSW,256,1.0,1.0,38,0.00,,,0.00,Wunderground v.1.15,2013-10-27 17:29:00,
2013-10-27 12:34:00,60.1,31.6,30.09,NNE,14,1.0,2.0,34,0.00,,,0.00,Wunderground v.1.15,2013-10-27 17:34:00,
2013-10-27 12:44:00,60.4,31.9,30.08,ESE,110,1.0,2.0,34,0.00,,,0.00,Wunderground v.1.15,2013-10-27 17:44:00,
2013-10-27 12:54:00,61.0,31.7,30.08,ESE,108,0.0,2.0,33,0.00,,,0.00,Wunderground v.1.15,2013-10-27 17:54:00,
2013-10-27 13:04:00,60.9,31.6,30.07,NE,53,0.0,2.0,33,0.00,,,0.00,Wunderground v.1.15,2013-10-27 18:04:00,
2013-10-27 13:14:00,61.5,32.1,30.06,ESE,108,0.0,4.0,33,0.00,,,0.00,Wunderground v.1.15,2013-10-27 18:14:00,
2013-10-27 13:24:00,61.9,33.2,30.05,WNW,285,1.0,2.0,34,0.00,,,0.00,Wunderground v.1.15,2013-10-27 18:24:00,
2013-10-27 13:34:00,62.1,30.3,30.05,ESE,102,0.0,2.0,30,0.00,,,0.00,Wunderground v.1.15,2013-10-27 18:34:00,
2013-10-27 13:44:00,62.8,31.7,30.04,East,96,1.0,2.0,31,0.00,,,0.00,Wunderground v.1.15,2013-10-27 18:44:00,
2013-10-27 13:54:00,62.9,29.3,30.04,SSE,166,1.0,2.0,28,0.00,,,0.00,Wunderground v.1.15,2013-10-27 18:54:00,
2013-10-27 14:04:00,63.2,28.6,30.03,SSE,160,1.0,2.0,27,0.00,,,0.00,Wunderground v.1.15,2013-10-27 19:04:00,
2013-10-27 14:14:00,62.9,28.4,30.03,SE,127,1.0,2.0,27,0.00,,,0.00,Wunderground v.1.15,2013-10-27 19:14:00,
2013-10-27 14:24:00,64.1,28.5,30.03,ENE,77,0.0,2.0,26,0.00,,,0.00,Wunderground v.1.15,2013-10-27 19:24:00,
2013-10-27 14:34:00,64.0,29.3,30.02,South,174,1.0,2.0,27,0.00,,,0.00,Wunderground v.1.15,2013-10-27 19:34:00,
2013-10-27 14:44:00,64.0,27.4,30.02,ESE,113,2.0,4.0,25,0.00,,,0.00,Wunderground v.1.15,2013-10-27 19:44:00,
2013-10-27 14:54:00,65.0,30.2,30.02,WNW,298,0.0,2.0,27,0.00,,,0.00,Wunderground v.1.15,2013-10-27 19:54:00,
2013-10-27 15:04:00,64.4,27.8,30.01,ENE,70,2.0,4.0,25,0.00,,,0.00,Wunderground v.1.15,2013-10-27 20:04:00,
2013-10-27 15:14:00,65.0,29.2,30.01,ESE,115,1.0,2.0,26,0.00,,,0.00,Wunderground v.1.15,2013-10-27 20:14:00,
2013-10-27 15:24:00,65.4,28.6,30.01,East,86,1.0,3.0,25,0.00,,,0.00,Wunderground v.1.15,2013-10-27 20:24:00,
2013-10-27 15:34:00,65.5,32.4,30.00,SSW,205,1.0,2.0,29,0.00,,,0.00,Wunderground v.1.15,2013-10-27 20:34:00,
2013-10-27 15:44:00,65.9,29.1,30.00,South,169,0.0,2.0,25,0.00,,,0.00,Wunderground v.1.15,2013-10-27 20:44:00,
2013-10-27 15:54:00,65.7,29.8,30.00,WSW,249,0.0,4.0,26,0.00,,,0.00,Wunderground v.1.15,2013-10-27 20:54:00,
2013-10-27 16:04:00,65.1,27.4,30.00,SE,138,1.0,2.0,24,0.00,,,0.00,Wunderground v.1.15,2013-10-27 21:04:00,
2013-10-27 16:14:00,65.5,28.7,30.00,ESE,123,0.0,2.0,25,0.00,,,0.00,Wunderground v.1.15,2013-10-27 21:14:00,
2013-10-27 16:24:00,65.5,27.7,30.00,SSW,212,0.0,2.0,24,0.00,,,0.00,Wunderground v.1.15,2013-10-27 21:24:00,
2013-10-27 16:34:00,65.2,28.5,30.00,East,86,0.0,2.0,25,0.00,,,0.00,Wunderground v.1.15,2013-10-27 21:34:00,
2013-10-27 16:44:00,65.5,28.7,29.99,SSW,210,0.0,2.0,25,0.00,,,0.00,Wunderground v.1.15,2013-10-27 21:44:00,
2013-10-27 16:54:00,64.6,27.9,29.99,SW,228,0.0,2.0,25,0.00,,,0.00,Wunderground v.1.15,2013-10-27 21:54:00,
2013-10-27 17:04:00,63.2,28.6,29.99,South,188,0.0,2.0,27,0.00,,,0.00,Wunderground v.1.15,2013-10-27 22:04:00,
2013-10-27 17:14:00,62.1,28.6,29.99,ESE,117,0.0,2.0,28,0.00,,,0.00,Wunderground v.1.15,2013-10-27 22:14:00,
2013-10-27 17:24:00,61.3,27.9,29.98,East,97,0.0,2.0,28,0.00,,,0.00,Wunderground v.1.15,2013-10-27 22:24:00,
2013-10-27 17:34:00,60.1,28.5,29.98,SE,134,0.0,2.0,30,0.00,,,0.00,Wunderground v.1.15,2013-10-27 22:34:00,
2013-10-27 17:44:00,58.4,30.8,29.98,SSW,193,0.0,2.0,35,0.00,,,0.00,Wunderground v.1.15,2013-10-27 22:44:00,
2013-10-27 17:54:00,57.0,31.6,29.98,SSW,195,0.0,2.0,38,0.00,,,0.00,Wunderground v.1.15,2013-10-27 22:54:00,
2013-10-27 17:59:00,56.3,32.3,29.98,SSW,195,0.0,2.0,40,0.00,,,0.00,Wunderground v.1.15,2013-10-27 22:59:00,
2013-10-27 18:09:00,54.8,32.7,29.98,SSW,195,0.0,2.0,43,0.00,,,0.00,Wunderground v.1.15,2013-10-27 23:09:00,
2013-10-27 18:19:00,53.0,32.8,29.98,SSW,195,0.0,2.0,46,0.00,,,0.00,Wunderground v.1.15,2013-10-27 23:19:00,
2013-10-27 18:29:00,50.9,32.4,29.98,SSW,196,0.0,2.0,49,0.00,,,0.00,Wunderground v.1.15,2013-10-27 23:29:00,
2013-10-27 18:34:00,50.4,31.9,29.98,SSW,195,0.0,2.0,49,0.00,,,0.00,Wunderground v.1.15,2013-10-27 23:34:00,
2013-10-27 18:39:00,49.7,33.7,29.98,SSW,195,0.0,2.0,54,0.00,,,0.00,Wunderground v.1.15,2013-10-27 23:39:00,
2013-10-27 18:49:00,47.8,33.3,29.98,SSW,195,0.0,2.0,57,0.00,,,0.00,Wunderground v.1.15,2013-10-27 23:49:00,
2013-10-27 18:59:00,46.5,33.8,29.98,SSW,195,0.0,2.0,61,0.00,,,0.00,Wunderground v.1.15,2013-10-27 23:59:00,
2013-10-27 19:09:00,46.2,33.5,29.99,SSW,195,0.0,2.0,61,0.00,,,0.00,Wunderground v.1.15,2013-10-28 00:09:00,
2013-10-27 19:19:00,46.2,33.9,29.99,SSW,195,0.0,2.0,62,0.00,,,0.00,Wunderground v.1.15,2013-10-28 00:19:00,
2013-10-27 19:24:00,45.4,33.5,29.99,SSW,195,0.0,2.0,63,0.00,,,0.00,Wunderground v.1.15,2013-10-28 00:24:00,
2013-10-27 19:34:00,43.9,33.6,29.99,SSW,195,0.0,2.0,67,0.00,,,0.00,Wunderground v.1.15,2013-10-28 00:34:00,
2013-10-27 19:44:00,43.2,33.7,29.99,SSW,195,0.0,2.0,69,0.00,,,0.00,Wunderground v.1.15,2013-10-28 00:44:00,
2013-10-27 19:54:00,42.8,33.3,30.00,SSW,196,0.0,2.0,69,0.00,,,0.00,Wunderground v.1.15,2013-10-28 00:54:00,
2013-10-27 19:59:00,42.5,33.8,29.99,SSW,195,0.0,2.0,71,0.00,,,0.00,Wunderground v.1.15,2013-10-28 00:59:00,
2013-10-27 20:09:00,41.9,33.5,29.99,SSW,195,0.0,2.0,72,0.00,,,0.00,Wunderground v.1.15,2013-10-28 01:09:00,
2013-10-27 20:14:00,41.4,33.7,29.99,SSW,195,0.0,2.0,74,0.00,,,0.00,Wunderground v.1.15,2013-10-28 01:14:00,
2013-10-27 20:19:00,41.1,33.8,29.99,SSW,195,0.0,2.0,75,0.00,,,0.00,Wunderground v.1.15,2013-10-28 01:19:00,
2013-10-27 20:24:00,41.0,34.0,30.00,SSW,196,0.0,2.0,76,0.00,,,0.00,Wunderground v.1.15,2013-10-28 01:24:00,
2013-10-27 20:34:00,40.7,33.4,30.00,SSW,196,0.0,2.0,75,0.00,,,0.00,Wunderground v.1.15,2013-10-28 01:34:00,
2013-10-27 20:44:00,39.7,33.7,30.00,SSW,196,0.0,2.0,79,0.00,,,0.00,Wunderground v.1.15,2013-10-28 01:44:00,
2013-10-27 20:54:00,38.9,33.6,30.00,SSW,195,0.0,2.0,81,0.00,,,0.00,Wunderground v.1.15,2013-10-28 01:54:00,
2013-10-27 21:04:00,38.2,33.2,30.00,SSW,195,0.0,2.0,82,0.00,,,0.00,Wunderground v.1.15,2013-10-28 02:04:00,
2013-10-27 21:14:00,38.0,33.3,30.00,SSW,195,0.0,2.0,83,0.00,,,0.00,Wunderground v.1.15,2013-10-28 02:14:00,
2013-10-27 21:24:00,37.6,33.5,30.00,SSW,195,0.0,2.0,85,0.00,,,0.00,Wunderground v.1.15,2013-10-28 02:24:00,
2013-10-27 21:29:00,37.5,33.7,30.00,SSW,195,0.0,2.0,86,0.00,,,0.00,Wunderground v.1.15,2013-10-28 02:29:00,
2013-10-27 21:34:00,37.4,33.3,30.00,SSW,195,0.0,2.0,85,0.00,,,0.00,Wunderground v.1.15,2013-10-28 02:34:00,
2013-10-27 21:44:00,37.3,33.8,30.01,SSW,195,0.0,2.0,87,0.00,,,0.00,Wunderground v.1.15,2013-10-28 02:44:00,
2013-10-27 21:54:00,37.1,33.6,30.01,SSW,195,0.0,2.0,87,0.00,,,0.00,Wunderground v.1.15,2013-10-28 02:54:00,
2013-10-27 22:04:00,36.5,33.0,30.02,SSW,195,0.0,2.0,87,0.00,,,0.00,Wunderground v.1.15,2013-10-28 03:04:00,
2013-10-27 22:14:00,36.2,33.0,30.02,SSW,195,0.0,2.0,88,0.00,,,0.00,Wunderground v.1.15,2013-10-28 03:14:00,
2013-10-27 22:24:00,36.4,32.9,30.02,SSW,195,0.0,2.0,87,0.00,,,0.00,Wunderground v.1.15,2013-10-28 03:24:00,
2013-10-27 22:34:00,36.2,33.0,30.02,SSW,195,0.0,2.0,88,0.00,,,0.00,Wunderground v.1.15,2013-10-28 03:34:00,
2013-10-27 22:44:00,35.9,33.0,30.03,SSW,195,0.0,2.0,89,0.00,,,0.00,Wunderground v.1.15,2013-10-28 03:44:00,
2013-10-27 22:49:00,35.7,33.1,30.03,SSW,195,0.0,2.0,90,0.00,,,0.00,Wunderground v.1.15,2013-10-28 03:49:00,
2013-10-27 22:54:00,35.4,32.5,30.03,SSW,195,0.0,2.0,89,0.00,,,0.00,Wunderground v.1.15,2013-10-28 03:54:00,
2013-10-27 23:04:00,35.5,33.4,30.03,SSW,195,0.0,2.0,92,0.00,,,0.00,Wunderground v.1.15,2013-10-28 04:04:00,
2013-10-27 23:14:00,35.4,33.0,30.03,SSW,195,0.0,2.0,91,0.00,,,0.00,Wunderground v.1.15,2013-10-28 04:14:00,
2013-10-27 23:19:00,35.2,32.8,30.03,SSW,195,0.0,2.0,91,0.00,,,0.00,Wunderground v.1.15,2013-10-28 04:19:00,
2013-10-27 23:24:00,35.4,33.3,30.03,SSW,195,0.0,2.0,92,0.00,,,0.00,Wunderground v.1.15,2013-10-28 04:24:00,
2013-10-27 23:29:00,35.8,33.4,30.03,SSW,195,0.0,2.0,91,0.00,,,0.00,Wunderground v.1.15,2013-10-28 04:29:00,
2013-10-27 23:34:00,36.2,33.8,30.03,SSW,195,0.0,2.0,91,0.00,,,0.00,Wunderground v.1.15,2013-10-28 04:34:00,
2013-10-27 23:39:00,36.0,33.4,30.03,SSW,195,0.0,2.0,90,0.00,,,0.00,Wunderground v.1.15,2013-10-28 04:39:00,
2013-10-27 23:49:00,35.3,32.7,30.03,SSW,195,0.0,2.0,90,0.00,,,0.00,Wunderground v.1.15,2013-10-28 04:49:00,
2013-10-27 23:59:00,35.1,33.0,30.03,SSW,195,0.0,2.0,92,0.00,,,0.00,Wunderground v.1.15,2013-10-28 04:59:00,